Time;durP1;ratioP1;P1;durP2;ratioP2;P2;SDS_P1;SDS_P2;PMS_P1;PMS_P2;Temp;Humidity;BMP_temperature;BMP_pressure;BME280_temperature;BME280_humidity;BME280_pressure;Samples;Min_cycle;Max_cycle;Signal;HPM_P1;HPM_P2
2021/12/22 00:04:25;;;;;;;;;;;-3275.20;88.30;;;;;;5055307;28;19905;-79
2021/12/22 00:09:49;;;;;;;;;;;-3275.10;87.80;;;;;;5043806;28;19920;-82
2021/12/22 00:12:15;;;;;;;;;;;-3275.00;88.20;;;;;;5025799;28;19909;-81
2021/12/22 00:14:40;;;;;;;;;;;-3275.10;88.40;;;;;;5038257;28;20404;-81
2021/12/22 00:17:06;;;;;;;;;;;-3275.20;88.20;;;;;;5027693;28;19996;-81
2021/12/22 00:19:32;;;;;;;;;;;-3275.00;87.90;;;;;;5038922;28;19940;-82
2021/12/22 00:22:18;;;;;;;;;;;-3275.10;88.10;;;;;;5039709;28;19909;-82
2021/12/22 00:27:57;;;;;;;;;;;-3275.10;88.00;;;;;;5060311;28;19913;-81
2021/12/22 00:30:25;;;;;;;;;;;-3275.10;87.80;;;;;;5058590;28;19936;-81
2021/12/22 00:33:01;;;;;;;;;;;-3275.10;88.00;;;;;;5029365;28;19909;-81
2021/12/22 00:35:30;;;;;;;;;;;-3275.20;88.10;;;;;;5076140;28;19913;-80
2021/12/22 00:37:58;;;;;;;;;;;-3275.30;87.80;;;;;;5064589;28;20376;-81
2021/12/22 00:40:24;;;;;;;;;;;-3275.30;87.60;;;;;;5057226;28;19954;-81
2021/12/22 00:42:50;;;;;;;;;;;-3275.30;87.30;;;;;;5057908;28;19988;-81
2021/12/22 00:45:17;;;;;;;;;;;-3275.40;87.30;;;;;;5039717;28;20376;-81
2021/12/22 00:47:43;;;;;;;;;;;-3275.30;87.00;;;;;;5033434;28;20311;-80
2021/12/22 00:50:09;;;;;;;;;;;-3275.10;86.90;;;;;;5046805;28;19912;-81
2021/12/22 00:52:37;;;;;;;;;;;-3275.20;87.10;;;;;;5040073;28;20348;-81
2021/12/22 00:55:16;;;;;;;;;;;-3275.20;86.90;;;;;;5035961;28;19913;-81
2021/12/22 00:57:44;;;;;;;;;;;-3275.20;86.70;;;;;;5028810;28;19936;-81
2021/12/22 01:00:10;;;;;;;;;;;-3275.20;86.80;;;;;;5027540;28;19939;-81
2021/12/22 01:02:35;;;;;;;;;;;-3275.10;86.60;;;;;;5036585;28;19948;-81
2021/12/22 01:05:21;;;;;;;;;;;-3275.10;86.60;;;;;;5040759;28;19928;-81
2021/12/22 01:08:12;;;;;;;;;;;-3274.80;86.70;;;;;;5028539;28;20011;-81
2021/12/22 01:10:57;;;;;;;;;;;-3274.70;87.10;;;;;;5036117;28;19913;-81
2021/12/22 01:13:32;;;;;;;;;;;-3274.70;87.30;;;;;;5038381;28;19916;-81
2021/12/22 01:16:00;;;;;;;;;;;-3274.70;87.40;;;;;;5034864;28;19920;-80
2021/12/22 01:18:39;;;;;;;;;;;-3274.60;87.40;;;;;;5016442;28;19917;-81
2021/12/22 01:28:22;;;;;;;;;;;-3274.90;87.90;;;;;;5035492;28;19932;-81
2021/12/22 01:31:08;;;;;;;;;;;-3274.70;87.50;;;;;;5030302;28;19924;-81
2021/12/22 01:34:02;;;;;;;;;;;-3274.80;88.00;;;;;;5016840;28;19931;-81
2021/12/22 01:36:56;;;;;;;;;;;-3275.00;87.90;;;;;;5029719;28;20514;-82
2021/12/22 01:53:12;;;;;;;;;;;;;;;;;;;;;
2021/12/22 01:56:24;;;;;;;;;;;-3274.50;87.00;;;;;;5054510;28;20027;-80
2021/12/22 02:02:56;;;;;;;;;;;;;;;;;;;;;
2021/12/22 02:08:26;;;;;;;;;;;-3274.30;87.80;;;;;;5043224;28;20309;-81
2021/12/22 02:13:49;;;;;;;;;;;-3274.40;87.20;;;;;;5047439;28;19913;-80
2021/12/22 02:16:40;;;;;;;;;;;-3274.30;87.60;;;;;;5024621;28;19914;-81
2021/12/22 02:19:08;;;;;;;;;;;-3274.10;87.60;;;;;;5050876;28;19913;-80
2021/12/22 02:21:46;;;;;;;;;;;-3274.10;87.80;;;;;;5038982;28;20295;-81
2021/12/22 02:24:19;;;;;;;;;;;-3274.20;87.90;;;;;;5028071;28;19909;-80
2021/12/22 02:27:18;;;;;;;;;;;-3274.10;87.80;;;;;;5030353;28;20353;-81
2021/12/22 02:29:47;;;;;;;;;;;-3274.10;87.90;;;;;;5034661;28;19944;-81
2021/12/22 02:35:24;;;;;;;;;;;-3273.90;87.70;;;;;;5051993;28;19916;-81
2021/12/22 02:37:53;;;;;;;;;;;-3273.80;88.20;;;;;;5011581;28;20481;-81
2021/12/22 02:43:21;;;;;;;;;;;-3273.80;88.30;;;;;;5051893;28;20316;-80
2021/12/22 02:45:54;;;;;;;;;;;-3273.80;87.90;;;;;;5017748;28;20308;-81
2021/12/22 02:48:29;;;;;;;;;;;-3273.80;87.80;;;;;;5021935;28;19923;-80
2021/12/22 02:51:34;;;;;;;;;;;;;;;;;;;;;
2021/12/22 02:54:32;;;;;;;;;;;;;;;;;;;;;
2021/12/22 02:57:21;;;;;;;;;;;-3273.70;88.00;;;;;;5041603;28;19999;-80
2021/12/22 03:05:51;;;;;;;;;;;-3274.30;87.30;;;;;;5056212;28;19967;-81
2021/12/22 03:08:45;;;;;;;;;;;-3274.10;87.10;;;;;;5045904;28;19924;-81
2021/12/22 03:24:14;;;;;;;;;;;-3274.30;86.50;;;;;;5040888;28;19955;-81
2021/12/22 03:26:44;;;;;;;;;;;-3274.50;86.10;;;;;;5036743;22;20048;-87
2021/12/22 03:29:13;;;;;;;;;;;-3274.30;86.10;;;;;;5008624;28;19913;-87
2021/12/22 03:31:38;;;;;;;;;;;-3274.50;86.20;;;;;;5004838;28;19913;-87
2021/12/22 03:34:04;;;;;;;;;;;-3274.40;86.30;;;;;;5007169;28;19913;-87
2021/12/22 03:36:30;;;;;;;;;;;-3274.30;86.30;;;;;;5012117;28;20000;-88
2021/12/22 03:38:56;;;;;;;;;;;-3274.30;86.10;;;;;;5013995;28;19999;-87
2021/12/22 03:41:21;;;;;;;;;;;-3274.40;86.20;;;;;;5020453;28;19909;-88
2021/12/22 03:43:47;;;;;;;;;;;-3274.50;85.60;;;;;;5023435;28;20003;-87
2021/12/22 03:46:13;;;;;;;;;;;-3274.50;85.30;;;;;;5027143;28;19921;-88
2021/12/22 03:48:38;;;;;;;;;;;-3274.50;85.10;;;;;;5007990;28;19921;-87
2021/12/22 03:51:04;;;;;;;;;;;-3274.50;85.00;;;;;;5026519;28;19913;-88
2021/12/22 03:53:29;;;;;;;;;;;-3274.40;85.10;;;;;;5021796;28;19980;-88
2021/12/22 03:55:55;;;;;;;;;;;-3274.30;85.00;;;;;;5021337;28;19909;-87
2021/12/22 03:58:21;;;;;;;;;;;-3274.20;85.30;;;;;;5021841;28;20051;-88
2021/12/22 04:00:50;;;;;;;;;;;-3274.30;85.00;;;;;;5039046;28;19968;-87
2021/12/22 04:03:18;;;;;;;;;;;-3274.30;84.90;;;;;;5022246;28;20677;-88
2021/12/22 04:05:44;;;;;;;;;;;-3274.00;84.70;;;;;;5022116;28;19921;-87
2021/12/22 04:08:11;;;;;;;;;;;-3274.10;85.00;;;;;;5021660;28;19968;-87
2021/12/22 04:10:37;;;;;;;;;;;-3274.20;84.90;;;;;;5026348;28;19912;-87
2021/12/22 04:13:03;;;;;;;;;;;-3274.20;84.90;;;;;;5031489;28;19971;-88
2021/12/22 04:15:29;;;;;;;;;;;-3274.20;84.70;;;;;;5027793;28;20381;-87
2021/12/22 04:17:54;;;;;;;;;;;-3274.20;84.50;;;;;;5020172;28;19971;-88
2021/12/22 04:20:20;;;;;;;;;;;-3274.20;84.30;;;;;;5020085;28;19920;-88
2021/12/22 04:22:46;;;;;;;;;;;-3274.30;84.40;;;;;;5026239;28;19916;-88
2021/12/22 04:25:19;;;;;;;;;;;-3274.40;83.90;;;;;;5024574;28;19917;-87
2021/12/22 04:27:45;;;;;;;;;;;-3274.10;84.00;;;;;;5019933;28;19984;-87
2021/12/22 04:30:10;;;;;;;;;;;-3274.20;84.30;;;;;;5035172;28;19955;-85
2021/12/22 04:32:36;;;;;;;;;;;-3274.10;84.40;;;;;;5018659;28;19913;-87
2021/12/22 04:35:02;;;;;;;;;;;-3274.30;84.50;;;;;;5019194;28;19909;-87
2021/12/22 04:37:27;;;;;;;;;;;-3274.20;84.20;;;;;;5018528;28;20293;-88
2021/12/22 04:39:53;;;;;;;;;;;-3274.20;84.20;;;;;;5018061;28;20345;-87
2021/12/22 04:42:19;;;;;;;;;;;-3274.20;84.10;;;;;;5019790;28;19917;-85
2021/12/22 04:44:45;;;;;;;;;;;-3274.20;83.90;;;;;;5021517;28;19944;-87
2021/12/22 04:47:11;;;;;;;;;;;-3274.20;83.20;;;;;;5018909;28;19913;-87
2021/12/22 04:49:36;;;;;;;;;;;-3274.20;83.30;;;;;;5022247;28;19979;-87
2021/12/22 04:52:07;;;;;;;;;;;-3274.30;83.00;;;;;;5018195;28;20369;-87
2021/12/22 04:54:42;;;;;;;;;;;-3274.40;83.40;;;;;;5017925;28;20023;-87
2021/12/22 04:57:07;;;;;;;;;;;-3274.30;83.10;;;;;;5019932;28;19913;-87
2021/12/22 04:59:33;;;;;;;;;;;-3274.30;83.30;;;;;;5016404;28;19913;-87
2021/12/22 05:01:58;;;;;;;;;;;-3274.20;83.20;;;;;;5024893;28;19909;-87
2021/12/22 05:04:24;;;;;;;;;;;-3274.10;83.20;;;;;;5017707;28;20007;-87
2021/12/22 05:06:49;;;;;;;;;;;-3274.20;83.30;;;;;;5019552;28;19913;-87
2021/12/22 05:09:15;;;;;;;;;;;-3274.10;83.30;;;;;;5022225;28;19974;-87
2021/12/22 05:11:41;;;;;;;;;;;-3274.10;83.30;;;;;;5016641;28;19913;-87
2021/12/22 05:14:08;;;;;;;;;;;-3273.90;82.90;;;;;;5016961;28;19928;-87
2021/12/22 05:16:34;;;;;;;;;;;-3274.00;83.10;;;;;;5017028;28;19920;-87
2021/12/22 05:19:11;;;;;;;;;;;-3274.00;83.40;;;;;;5017980;28;19909;-87
2021/12/22 05:21:37;;;;;;;;;;;-3274.00;83.20;;;;;;5049639;28;19913;-88
2021/12/22 05:24:03;;;;;;;;;;;-3274.00;83.20;;;;;;5033916;28;19897;-88
2021/12/22 05:26:28;;;;;;;;;;;-3273.80;83.30;;;;;;5023059;28;19921;-88
2021/12/22 05:28:54;;;;;;;;;;;-3273.90;83.80;;;;;;5035157;28;20042;-87
2021/12/22 05:31:21;;;;;;;;;;;-3273.90;83.70;;;;;;5026721;28;19910;-87
2021/12/22 05:33:46;;;;;;;;;;;-3273.90;83.50;;;;;;5020176;28;19913;-86
2021/12/22 05:36:12;;;;;;;;;;;-3273.80;83.40;;;;;;5041007;28;19993;-86
2021/12/22 05:38:38;;;;;;;;;;;-3273.90;83.40;;;;;;5019388;28;19921;-86
2021/12/22 05:41:03;;;;;;;;;;;-3274.00;83.30;;;;;;5021651;28;19916;-86
2021/12/22 05:43:29;;;;;;;;;;;-3273.90;83.30;;;;;;5022810;28;20040;-86
2021/12/22 05:45:54;;;;;;;;;;;-3273.80;83.00;;;;;;5021879;28;19921;-86
2021/12/22 05:48:21;;;;;;;;;;;-3273.90;83.20;;;;;;5021527;28;19921;-85
2021/12/22 05:50:50;;;;;;;;;;;-3273.80;83.40;;;;;;5026743;28;19913;-85
2021/12/22 05:53:15;;;;;;;;;;;-3273.90;83.00;;;;;;5019936;28;19909;-83
2021/12/22 05:55:41;;;;;;;;;;;-3273.80;83.30;;;;;;5043019;28;19924;-85
2021/12/22 05:58:07;;;;;;;;;;;-3273.90;83.50;;;;;;5027994;28;19909;-84
2021/12/22 06:00:32;;;;;;;;;;;-3274.00;83.10;;;;;;5029911;28;19927;-86
2021/12/22 06:02:58;;;;;;;;;;;-3274.00;83.20;;;;;;5035170;28;19917;-83
2021/12/22 06:05:23;;;;;;;;;;;-3274.00;82.80;;;;;;5028588;28;19921;-85
2021/12/22 06:07:49;;;;;;;;;;;-3274.00;82.60;;;;;;5016098;28;19964;-84
2021/12/22 06:10:14;;;;;;;;;;;-3273.90;82.60;;;;;;5027549;28;19914;-86
2021/12/22 06:12:40;;;;;;;;;;;-3274.00;82.60;;;;;;5047581;28;19917;-84
2021/12/22 06:15:06;;;;;;;;;;;-3273.90;82.50;;;;;;5018984;28;19914;-86
2021/12/22 06:17:31;;;;;;;;;;;-3273.90;83.10;;;;;;5012211;28;20384;-86
2021/12/22 06:19:57;;;;;;;;;;;-3273.90;82.80;;;;;;5009132;28;20000;-84
2021/12/22 06:22:23;;;;;;;;;;;-3273.90;82.60;;;;;;5015282;28;19913;-86
2021/12/22 06:24:48;;;;;;;;;;;-3273.90;82.60;;;;;;5017086;28;19925;-85
2021/12/22 06:27:14;;;;;;;;;;;-3274.00;82.70;;;;;;5017596;28;19920;-85
2021/12/22 06:29:40;;;;;;;;;;;-3274.00;82.50;;;;;;5033912;28;20274;-86
2021/12/22 06:32:05;;;;;;;;;;;-3273.90;82.60;;;;;;5019228;28;19917;-86
2021/12/22 06:34:31;;;;;;;;;;;-3273.90;82.70;;;;;;5033538;28;19909;-86
2021/12/22 06:36:56;;;;;;;;;;;-3274.10;82.80;;;;;;5002973;28;19917;-86
2021/12/22 06:39:22;;;;;;;;;;;-3274.00;82.30;;;;;;5016919;28;19913;-83
2021/12/22 06:41:48;;;;;;;;;;;-3274.00;82.50;;;;;;5020668;28;19951;-85
2021/12/22 06:44:14;;;;;;;;;;;-3273.90;82.50;;;;;;5023599;28;19913;-86
2021/12/22 06:46:41;;;;;;;;;;;-3273.80;82.50;;;;;;5027128;28;19923;-85
2021/12/22 06:49:07;;;;;;;;;;;-3273.80;82.80;;;;;;5028625;28;19906;-85
2021/12/22 06:51:33;;;;;;;;;;;-3273.80;82.70;;;;;;5021655;28;19919;-86
2021/12/22 06:53:58;;;;;;;;;;;-3273.70;82.50;;;;;;5020205;28;19917;-85
2021/12/22 06:56:23;;;;;;;;;;;-3273.80;83.20;;;;;;5038351;28;20075;-84
2021/12/22 06:58:49;;;;;;;;;;;-3273.70;82.50;;;;;;5019717;28;19920;-85
2021/12/22 07:01:18;;;;;;;;;;;-3273.70;82.90;;;;;;5016078;28;19921;-84
2021/12/22 07:03:44;;;;;;;;;;;-3273.90;82.60;;;;;;5044414;28;19919;-84
2021/12/22 07:06:10;;;;;;;;;;;-3273.80;82.60;;;;;;5020692;28;20343;-84
2021/12/22 07:08:35;;;;;;;;;;;-3273.80;82.30;;;;;;5024981;28;20367;-84
2021/12/22 07:11:01;;;;;;;;;;;-3273.80;82.10;;;;;;5019533;28;19910;-84
2021/12/22 07:13:26;;;;;;;;;;;-3273.80;82.10;;;;;;5038912;28;20332;-84
2021/12/22 07:15:52;;;;;;;;;;;-3273.80;82.00;;;;;;5021162;28;20329;-83
2021/12/22 07:18:17;;;;;;;;;;;-3273.70;82.00;;;;;;5022397;28;20094;-85
2021/12/22 07:20:43;;;;;;;;;;;-3273.70;82.20;;;;;;5036612;28;19992;-84
2021/12/22 07:23:08;;;;;;;;;;;-3273.70;82.20;;;;;;5029503;28;19920;-85
2021/12/22 07:25:34;;;;;;;;;;;-3273.70;82.30;;;;;;5033826;28;20001;-85
2021/12/22 07:28:00;;;;;;;;;;;-3273.70;82.40;;;;;;5025748;28;19935;-85
2021/12/22 07:30:25;;;;;;;;;;;-3273.80;82.50;;;;;;5023725;28;19916;-86
2021/12/22 07:32:51;;;;;;;;;;;-3273.80;82.50;;;;;;5024413;28;19921;-85
2021/12/22 07:35:25;;;;;;;;;;;-3273.90;82.70;;;;;;5021657;28;19917;-85
2021/12/22 07:37:57;;;;;;;;;;;-3273.80;82.40;;;;;;5021995;28;19949;-85
2021/12/22 07:40:22;;;;;;;;;;;-3273.80;82.10;;;;;;5027956;28;19952;-84
2021/12/22 07:42:48;;;;;;;;;;;-3273.80;82.30;;;;;;5032034;28;19913;-86
2021/12/22 07:45:13;;;;;;;;;;;-3273.80;82.60;;;;;;5021125;28;20067;-85
2021/12/22 07:47:39;;;;;;;;;;;-3273.90;82.30;;;;;;5040430;28;19940;-85
2021/12/22 07:50:06;;;;;;;;;;;-3273.70;82.70;;;;;;5023173;28;20011;-85
2021/12/22 07:52:31;;;;;;;;;;;-3273.80;82.90;;;;;;5042865;28;19909;-85
2021/12/22 07:54:57;;;;;;;;;;;-3273.80;83.30;;;;;;5042312;28;19927;-89
2021/12/22 07:57:23;;;;;;;;;;;-3273.80;83.00;;;;;;5030287;28;20023;-86
2021/12/22 07:59:51;;;;;;;;;;;-3273.90;83.50;;;;;;5033937;28;20034;-87
2021/12/22 08:02:17;;;;;;;;;;;-3273.90;83.60;;;;;;5030809;28;20104;-88
2021/12/22 08:04:43;;;;;;;;;;;-3273.90;83.40;;;;;;5028267;28;20313;-86
2021/12/22 08:07:08;;;;;;;;;;;-3273.90;83.60;;;;;;5048061;28;19998;-85
2021/12/22 08:09:34;;;;;;;;;;;-3274.10;83.20;;;;;;5063119;28;19931;-88
2021/12/22 08:12:04;;;;;;;;;;;-3274.20;82.50;;;;;;5038734;28;19992;-88
2021/12/22 08:14:31;;;;;;;;;;;-3274.20;82.60;;;;;;5036282;28;19909;-86
2021/12/22 08:16:56;;;;;;;;;;;-3274.20;82.50;;;;;;5045960;28;19927;-85
2021/12/22 08:19:22;;;;;;;;;;;-3274.20;82.70;;;;;;5034510;28;19913;-85
2021/12/22 08:21:47;;;;;;;;;;;-3274.20;82.20;;;;;;5034697;28;19913;-86
2021/12/22 08:24:14;;;;;;;;;;;-3274.20;82.50;;;;;;5018814;28;19984;-85
2021/12/22 08:26:39;;;;;;;;;;;-3274.30;82.70;;;;;;5028824;28;19936;-87
2021/12/22 08:29:05;;;;;;;;;;;-3274.20;82.60;;;;;;5062572;28;19913;-88
2021/12/22 08:31:30;;;;;;;;;;;-3274.10;82.50;;;;;;5027445;28;19977;-88
2021/12/22 08:33:56;;;;;;;;;;;-3274.20;82.90;;;;;;5025024;28;19977;-87
2021/12/22 08:39:09;;;;;;;;;;;-3274.20;83.40;;;;;;5044437;28;19920;-86
2021/12/22 08:41:36;;;;;;;;;;;-3274.40;83.30;;;;;;5048657;28;19909;-87
2021/12/22 08:44:06;;;;;;;;;;;-3274.50;82.80;;;;;;5029379;28;19917;-88
2021/12/22 08:46:32;;;;;;;;;;;-3274.30;82.50;;;;;;5023926;28;19928;-85
2021/12/22 08:48:58;;;;;;;;;;;-3274.00;82.90;;;;;;5021958;28;20362;-87
2021/12/22 08:51:23;;;;;;;;;;;-3274.10;83.80;;;;;;5020644;28;19909;-84
2021/12/22 08:53:49;;;;;;;;;;;-3274.00;83.60;;;;;;5022215;28;19984;-84
2021/12/22 08:56:14;;;;;;;;;;;-3274.20;83.60;;;;;;5030838;28;19921;-87
2021/12/22 08:58:40;;;;;;;;;;;-3274.00;83.70;;;;;;5021681;28;19913;-86
2021/12/22 09:01:06;;;;;;;;;;;-3274.10;84.00;;;;;;5017514;28;19927;-88
2021/12/22 09:03:32;;;;;;;;;;;-3274.20;83.80;;;;;;5019736;28;19967;-87
2021/12/22 09:05:59;;;;;;;;;;;-3274.10;84.00;;;;;;5039418;28;19952;-86
2021/12/22 09:08:24;;;;;;;;;;;-3274.30;84.30;;;;;;5024199;28;19917;-86
2021/12/22 09:10:50;;;;;;;;;;;-3274.50;84.40;;;;;;5022852;28;19980;-88
2021/12/22 09:13:17;;;;;;;;;;;-3274.60;84.30;;;;;;5020290;28;19922;-86
2021/12/22 09:15:43;;;;;;;;;;;-3274.50;84.20;;;;;;5040813;28;19913;-85
2021/12/22 09:18:08;;;;;;;;;;;-3274.40;84.30;;;;;;5026542;28;19917;-85
2021/12/22 09:20:33;;;;;;;;;;;-3274.50;84.90;;;;;;5044910;28;19943;-85
2021/12/22 09:22:59;;;;;;;;;;;-3274.60;84.80;;;;;;5045352;28;20527;-84
2021/12/22 09:25:24;;;;;;;;;;;-3274.80;84.80;;;;;;5061448;22;19978;-83
2021/12/22 09:27:50;;;;;;;;;;;-3275.00;84.50;;;;;;5012774;28;19914;-83
2021/12/22 09:30:15;;;;;;;;;;;-3275.20;84.40;;;;;;5038146;28;19910;-83
2021/12/22 09:32:41;;;;;;;;;;;-3275.10;83.80;;;;;;5026947;28;19909;-83
2021/12/22 09:35:07;;;;;;;;;;;-3275.20;83.70;;;;;;5042073;28;19921;-83
2021/12/22 09:37:32;;;;;;;;;;;-3275.20;83.50;;;;;;5043308;28;19919;-82
2021/12/22 09:39:57;;;;;;;;;;;-3275.20;83.60;;;;;;5018808;28;19996;-83
2021/12/22 09:42:23;;;;;;;;;;;-3275.20;83.40;;;;;;5031627;28;19901;-83
2021/12/22 09:44:50;;;;;;;;;;;-3275.20;83.70;;;;;;5025449;28;20332;-84
2021/12/22 09:47:24;;;;;;;;;;;-3275.30;83.70;;;;;;5023170;28;20322;-85
2021/12/22 09:50:06;;;;;;;;;;;-3275.20;84.00;;;;;;5027199;28;19914;-85
2021/12/22 09:52:33;;;;;;;;;;;-3275.20;84.10;;;;;;5015765;28;20294;-85
2021/12/22 09:55:00;;;;;;;;;;;-3275.00;84.30;;;;;;5014624;28;19923;-85
2021/12/22 09:57:27;;;;;;;;;;;-3274.90;84.70;;;;;;5014526;28;19952;-84
2021/12/22 09:59:53;;;;;;;;;;;-3275.20;85.00;;;;;;5028734;28;20004;-83
2021/12/22 10:02:20;;;;;;;;;;;-3275.10;84.90;;;;;;5012730;28;19960;-83
2021/12/22 10:04:45;;;;;;;;;;;-3275.30;85.30;;;;;;5029284;28;19921;-84
2021/12/22 10:07:19;;;;;;;;;;;-3275.40;85.30;;;;;;5034767;28;22728;-83
2021/12/22 10:09:45;;;;;;;;;;;-3275.30;85.30;;;;;;5011794;28;19964;-84
2021/12/22 10:12:15;;;;;;;;;;;-3275.30;85.60;;;;;;5013870;28;19913;-83
2021/12/22 10:14:48;;;;;;;;;;;-3275.30;85.80;;;;;;5015983;28;19989;-84
2021/12/22 10:17:25;;;;;;;;;;;-3275.50;86.00;;;;;;5014266;28;19936;-85
2021/12/22 10:19:53;;;;;;;;;;;-3275.50;85.70;;;;;;5014085;28;20023;-82
2021/12/22 10:22:18;;;;;;;;;;;-3275.70;85.80;;;;;;5032316;28;19913;-84
2021/12/22 10:24:46;;;;;;;;;;;-3275.70;85.30;;;;;;5015246;28;19987;-84
2021/12/22 10:27:18;;;;;;;;;;;-3275.70;85.60;;;;;;5011411;28;19917;-83
2021/12/22 10:29:43;;;;;;;;;;;-3275.90;85.90;;;;;;5045832;28;19923;-84
2021/12/22 10:32:10;;;;;;;;;;;-3276.10;85.80;;;;;;5028147;28;19913;-83
2021/12/22 10:34:36;;;;;;;;;;;-3276.10;85.70;;;;;;5027490;28;19932;-83
2021/12/22 10:37:04;;;;;;;;;;;-3275.90;85.70;;;;;;5012680;28;20303;-83
2021/12/22 10:39:30;;;;;;;;;;;-3275.80;86.30;;;;;;5014824;28;19924;-84
2021/12/22 10:42:06;;;;;;;;;;;-3275.90;86.40;;;;;;5014589;28;19913;-83
2021/12/22 10:44:39;;;;;;;;;;;-3276.00;86.60;;;;;;5008842;28;19914;-84
2021/12/22 10:47:18;;;;;;;;;;;-3276.20;86.50;;;;;;5013418;28;19927;-84
2021/12/22 10:49:56;;;;;;;;;;;-3276.00;86.30;;;;;;5029541;28;20346;-83
2021/12/22 10:52:26;;;;;;;;;;;-3276.10;86.50;;;;;;5018356;28;19913;-83
2021/12/22 10:55:04;;;;;;;;;;;-3276.10;86.50;;;;;;5046270;28;19968;-82
2021/12/22 10:57:34;;;;;;;;;;;-3276.20;86.70;;;;;;5035585;28;19928;-83
2021/12/22 10:59:59;;;;;;;;;;;-3276.30;86.70;;;;;;5032138;28;19970;-87
2021/12/22 11:02:26;;;;;;;;;;;-3276.50;86.70;;;;;;5017646;28;19925;-83
2021/12/22 11:04:52;;;;;;;;;;;-3276.60;86.60;;;;;;5009958;28;19917;-84
2021/12/22 11:07:23;;;;;;;;;;;-3276.50;86.50;;;;;;5027477;28;19975;-83
2021/12/22 11:09:53;;;;;;;;;;;-3276.40;86.70;;;;;;5010375;28;20165;-83
2021/12/22 11:12:35;;;;;;;;;;;-3276.30;87.00;;;;;;5027983;28;19924;-87
2021/12/22 11:15:00;;;;;;;;;;;-3276.40;87.10;;;;;;5011743;28;19913;-84
2021/12/22 11:17:26;;;;;;;;;;;-3276.30;87.10;;;;;;5032292;28;19920;-84
2021/12/22 11:20:04;;;;;;;;;;;-3276.30;87.40;;;;;;5016405;28;19936;-84
2021/12/22 11:25:19;;;;;;;;;;;-3276.40;87.20;;;;;;5034453;28;19936;-84
2021/12/22 11:27:45;;;;;;;;;;;-3276.50;86.90;;;;;;5017285;28;19913;-84
2021/12/22 11:30:12;;;;;;;;;;;-3276.50;86.50;;;;;;5016736;28;19917;-86
2021/12/22 11:32:38;;;;;;;;;;;-3276.50;86.30;;;;;;5030414;28;20317;-83
2021/12/22 11:35:05;;;;;;;;;;;-3276.60;86.40;;;;;;5018771;28;19913;-83
2021/12/22 11:37:31;;;;;;;;;;;-3276.60;86.30;;;;;;5019933;28;19976;-85
2021/12/22 11:39:58;;;;;;;;;;;-3276.70;86.60;;;;;;5040419;28;20724;-84
2021/12/22 11:42:28;;;;;;;;;;;-3276.70;86.60;;;;;;5009209;28;19949;-84
2021/12/22 11:45:03;;;;;;;;;;;0.00;86.30;;;;;;5017732;28;19980;-84
2021/12/22 11:47:34;;;;;;;;;;;0.00;86.30;;;;;;5017170;28;19917;-84
2021/12/22 11:50:00;;;;;;;;;;;0.00;86.40;;;;;;5018241;28;19996;-87
2021/12/22 11:52:27;;;;;;;;;;;0.00;86.70;;;;;;5021876;28;20074;-85
2021/12/22 11:55:06;;;;;;;;;;;0.00;86.50;;;;;;5025081;28;19920;-87
2021/12/22 11:57:35;;;;;;;;;;;0.10;86.40;;;;;;5039167;28;20000;-84
2021/12/22 12:00:19;;;;;;;;;;;0.10;86.40;;;;;;5023775;28;19921;-84
2021/12/22 12:02:45;;;;;;;;;;;0.20;86.50;;;;;;5031840;28;19909;-82
2021/12/22 12:05:15;;;;;;;;;;;0.40;86.60;;;;;;5056630;28;19920;-84
2021/12/22 12:07:41;;;;;;;;;;;0.40;86.40;;;;;;5043900;28;20000;-84
2021/12/22 12:10:32;;;;;;;;;;;0.30;86.30;;;;;;5037445;28;19959;-83
2021/12/22 12:13:03;;;;;;;;;;;0.30;86.50;;;;;;5037247;28;19921;-84
2021/12/22 12:15:54;;;;;;;;;;;0.40;86.60;;;;;;5019977;28;19913;-84
2021/12/22 12:21:41;;;;;;;;;;;0.50;86.30;;;;;;5037315;28;21552;-85
2021/12/22 12:24:32;;;;;;;;;;;0.50;86.20;;;;;;5038235;28;19920;-84
2021/12/22 12:26:57;;;;;;;;;;;0.50;86.70;;;;;;5032868;28;19976;-85
2021/12/22 12:29:42;;;;;;;;;;;0.50;86.80;;;;;;5020835;28;19944;-84
2021/12/22 12:32:07;;;;;;;;;;;0.60;87.00;;;;;;5036241;28;19955;-84
2021/12/22 12:34:36;;;;;;;;;;;0.80;87.10;;;;;;5017974;28;19913;-85
2021/12/22 12:37:01;;;;;;;;;;;0.80;86.80;;;;;;5023107;28;19924;-85
2021/12/22 12:39:45;;;;;;;;;;;0.90;86.70;;;;;;5021869;28;19913;-84
2021/12/22 12:42:11;;;;;;;;;;;0.80;86.50;;;;;;5037274;28;20031;-85
2021/12/22 12:44:36;;;;;;;;;;;0.70;86.80;;;;;;5014211;28;19943;-85
2021/12/22 12:47:16;;;;;;;;;;;0.70;86.90;;;;;;5034801;28;19913;-84
2021/12/22 12:49:43;;;;;;;;;;;0.80;86.90;;;;;;5018082;28;19913;-84
2021/12/22 12:52:10;;;;;;;;;;;0.80;87.20;;;;;;5021216;28;20330;-84
2021/12/22 12:54:39;;;;;;;;;;;1.00;87.40;;;;;;5034355;28;19914;-84
2021/12/22 12:57:14;;;;;;;;;;;1.10;87.10;;;;;;5034986;28;19971;-85
2021/12/22 12:59:40;;;;;;;;;;;1.10;87.30;;;;;;5038818;28;20291;-84
2021/12/22 13:02:06;;;;;;;;;;;1.10;87.30;;;;;;5029368;28;19999;-84
2021/12/22 13:04:36;;;;;;;;;;;1.00;87.40;;;;;;5039889;28;19936;-84
2021/12/22 13:07:04;;;;;;;;;;;1.10;87.40;;;;;;5016267;28;19917;-83
2021/12/22 13:09:32;;;;;;;;;;;1.00;87.60;;;;;;5033526;28;19924;-85
2021/12/22 13:12:03;;;;;;;;;;;1.00;87.80;;;;;;5015760;28;20003;-85
2021/12/22 13:17:13;;;;;;;;;;;1.10;87.90;;;;;;5033506;28;20047;-84
2021/12/22 13:19:42;;;;;;;;;;;1.30;87.80;;;;;;5031489;28;20382;-84
2021/12/22 13:22:18;;;;;;;;;;;1.50;87.50;;;;;;5018210;28;19913;-83
2021/12/22 13:24:44;;;;;;;;;;;1.50;87.30;;;;;;5015660;28;20450;-84
2021/12/22 13:27:09;;;;;;;;;;;1.60;86.90;;;;;;5033692;28;19917;-85
2021/12/22 13:29:36;;;;;;;;;;;1.50;86.60;;;;;;5016218;28;19913;-85
2021/12/22 13:32:10;;;;;;;;;;;1.40;86.90;;;;;;5014104;28;19913;-84
2021/12/22 13:34:46;;;;;;;;;;;1.30;86.90;;;;;;5020615;28;20598;-84
2021/12/22 13:37:11;;;;;;;;;;;1.20;87.10;;;;;;5022090;28;19913;-84
2021/12/22 13:39:40;;;;;;;;;;;1.20;87.30;;;;;;5035642;28;19956;-85
2021/12/22 13:42:07;;;;;;;;;;;1.30;87.10;;;;;;5017895;28;20347;-84
2021/12/22 13:44:37;;;;;;;;;;;1.50;87.10;;;;;;5017695;28;20008;-84
2021/12/22 13:47:03;;;;;;;;;;;1.50;86.90;;;;;;5033274;28;19917;-83
2021/12/22 13:49:29;;;;;;;;;;;1.60;86.80;;;;;;5027323;28;19952;-82
2021/12/22 13:51:54;;;;;;;;;;;1.70;86.80;;;;;;5045013;28;19913;-84
2021/12/22 13:54:23;;;;;;;;;;;1.80;86.70;;;;;;5022007;28;19914;-84
2021/12/22 13:56:50;;;;;;;;;;;1.70;86.50;;;;;;5044713;28;19917;-84
2021/12/22 13:59:22;;;;;;;;;;;1.80;86.50;;;;;;5039334;28;20295;-83
2021/12/22 14:01:49;;;;;;;;;;;1.80;86.50;;;;;;5020145;28;19921;-84
2021/12/22 14:04:41;;;;;;;;;;;1.80;86.60;;;;;;5020900;28;19975;-84
2021/12/22 14:07:11;;;;;;;;;;;1.80;86.60;;;;;;5017542;28;19921;-84
2021/12/22 14:09:50;;;;;;;;;;;1.80;86.30;;;;;;5019463;28;19909;-84
2021/12/22 14:12:22;;;;;;;;;;;1.80;86.40;;;;;;5023138;28;19915;-84
2021/12/22 14:14:49;;;;;;;;;;;1.80;86.40;;;;;;5020383;28;20478;-84
2021/12/22 14:17:22;;;;;;;;;;;1.70;86.30;;;;;;5049668;28;19901;-83
2021/12/22 14:19:51;;;;;;;;;;;1.70;86.50;;;;;;5054397;28;19917;-84
2021/12/22 14:22:18;;;;;;;;;;;1.60;86.50;;;;;;5034846;28;19951;-84
2021/12/22 14:24:47;;;;;;;;;;;1.60;86.60;;;;;;5027025;28;20019;-83
2021/12/22 14:27:15;;;;;;;;;;;1.60;86.80;;;;;;5053093;28;19917;-84
2021/12/22 14:29:51;;;;;;;;;;;1.60;86.80;;;;;;5012209;28;19913;-84
2021/12/22 14:32:25;;;;;;;;;;;1.60;86.90;;;;;;5030891;28;19984;-84
2021/12/22 14:35:01;;;;;;;;;;;1.60;86.90;;;;;;5014921;28;20276;-85
2021/12/22 14:37:29;;;;;;;;;;;1.80;87.10;;;;;;5015388;28;20600;-84
2021/12/22 14:39:55;;;;;;;;;;;1.70;86.90;;;;;;5016934;28;19913;-83
2021/12/22 14:42:21;;;;;;;;;;;1.70;86.80;;;;;;5013743;28;19913;-84
2021/12/22 14:44:47;;;;;;;;;;;1.60;86.90;;;;;;5015585;28;19917;-83
2021/12/22 14:47:20;;;;;;;;;;;1.60;86.90;;;;;;5028889;28;19963;-84
2021/12/22 14:49:46;;;;;;;;;;;1.50;87.10;;;;;;5026322;28;19936;-84
2021/12/22 14:52:11;;;;;;;;;;;1.50;87.20;;;;;;5026129;28;19913;-84
2021/12/22 14:54:37;;;;;;;;;;;1.50;87.20;;;;;;5015210;28;20368;-84
2021/12/22 14:57:03;;;;;;;;;;;1.50;87.00;;;;;;5014539;28;19924;-85
2021/12/22 14:59:32;;;;;;;;;;;1.40;87.10;;;;;;5017044;28;19913;-83
2021/12/22 15:01:58;;;;;;;;;;;1.30;87.10;;;;;;5040526;28;19928;-83
2021/12/22 15:04:25;;;;;;;;;;;1.30;87.40;;;;;;5034274;28;19909;-84
2021/12/22 15:06:51;;;;;;;;;;;1.30;87.40;;;;;;5026416;28;19928;-83
2021/12/22 15:09:16;;;;;;;;;;;1.30;87.30;;;;;;5030372;28;19913;-83
2021/12/22 15:11:42;;;;;;;;;;;1.40;87.00;;;;;;5019508;28;19963;-85
2021/12/22 15:14:07;;;;;;;;;;;1.40;86.80;;;;;;5019346;28;19940;-84
2021/12/22 15:16:33;;;;;;;;;;;1.30;86.90;;;;;;5016285;28;19936;-84
2021/12/22 15:18:59;;;;;;;;;;;1.20;86.90;;;;;;5021447;28;19968;-84
2021/12/22 15:21:25;;;;;;;;;;;1.20;87.00;;;;;;5036790;28;19936;-85
2021/12/22 15:23:51;;;;;;;;;;;1.20;86.90;;;;;;5035093;28;19988;-86